Wetterstation Vordersexau
Wetterdaten: Woche 09.10.17 - 15.10.17 (KW41)
Datum Zeit Temp. A. Feuchte A. Luftdruck Regen Wind Richtung Taupunkt Windchill Windben
09.10.2017 00:00 10,9 C 80 % 1018,5 hPa 0,0 l/m 0,0 km/h S-SO 7,6 C 10,9 C 0,0 km/h
09.10.2017 01:00 10,8 C 79 % 1018,4 hPa 0,0 l/m 0,0 km/h S-SO 7,3 C 10,8 C 0,0 km/h
09.10.2017 02:00 10,2 C 79 % 1018,2 hPa 0,0 l/m 0,0 km/h SO 6,7 C 10,2 C 0,0 km/h
09.10.2017 03:00 10,0 C 78 % 1017,8 hPa 0,0 l/m 0,0 km/h SO 6,3 C 10,0 C 0,0 km/h
09.10.2017 04:00 9,8 C 78 % 1017,9 hPa 0,0 l/m 0,0 km/h SO 6,1 C 9,8 C 0,0 km/h
09.10.2017 05:00 10,0 C 76 % 1018,0 hPa 0,0 l/m 0,0 km/h SO 6,0 C 10,0 C 0,0 km/h
09.10.2017 06:00 9,8 C 76 % 1017,9 hPa 0,0 l/m 0,0 km/h SO 5,8 C 9,8 C 0,0 km/h
09.10.2017 07:00 9,8 C 76 % 1018,0 hPa 0,0 l/m 0,0 km/h S 5,8 C 9,8 C 0,0 km/h
09.10.2017 08:00 10,8 C 74 % 1018,7 hPa 0,0 l/m 0,0 km/h NW 6,4 C 10,8 C 0,0 km/h
09.10.2017 09:00 12,4 C 74 % 1018,8 hPa 0,0 l/m 0,0 km/h N 7,9 C 12,4 C 0,0 km/h
09.10.2017 10:00 12,8 C 81 % 1018,8 hPa 0,0 l/m 0,0 km/h N 9,6 C 12,8 C 0,0 km/h
09.10.2017 11:00 14,4 C 83 % 1018,9 hPa 0,0 l/m 0,0 km/h S 11,5 C 14,4 C 0,0 km/h
09.10.2017 12:00 18,2 C 70 % 1018,5 hPa 0,0 l/m 0,0 km/h N 12,6 C 18,2 C 0,0 km/h
09.10.2017 13:00 16,8 C 70 % 1018,3 hPa 0,0 l/m 0,0 km/h SW 11,3 C 16,8 C 0,0 km/h
09.10.2017 14:00 16,1 C 71 % 1017,9 hPa 0,0 l/m 0,0 km/h SO 10,8 C 16,1 C 0,0 km/h
09.10.2017 15:00 17,3 C 67 % 1017,9 hPa 0,0 l/m 0,0 km/h NO 11,1 C 17,3 C 0,0 km/h
09.10.2017 16:00 14,4 C 78 % 1018,0 hPa 0,0 l/m 0,0 km/h NO 10,6 C 14,4 C 0,0 km/h
09.10.2017 17:00 13,5 C 80 % 1018,0 hPa 0,0 l/m 0,0 km/h O-SO 10,1 C 13,5 C 0,0 km/h
09.10.2017 18:00 11,7 C 82 % 1018,1 hPa 0,0 l/m 0,0 km/h O-SO 8,7 C 11,7 C 0,0 km/h
09.10.2017 19:00 9,9 C 83 % 1018,3 hPa 0,0 l/m 0,0 km/h O-SO 7,2 C 9,9 C 0,0 km/h
09.10.2017 20:00 9,9 C 83 % 1018,6 hPa 0,0 l/m 0,0 km/h O-SO 7,2 C 9,9 C 0,0 km/h
09.10.2017 21:00 8,6 C 84 % 1018,5 hPa 0,0 l/m 0,0 km/h O-SO 6,1 C 8,6 C 0,0 km/h
09.10.2017 22:00 7,5 C 83 % 1018,4 hPa 0,0 l/m 0,0 km/h O-SO 4,8 C 7,5 C 0,0 km/h
09.10.2017 23:00 7,0 C 82 % 1018,4 hPa 0,0 l/m 0,0 km/h N 4,1 C 7,0 C 0,0 km/h
10.10.2017 00:00 6,4 C 81 % 1018,2 hPa 0,0 l/m 0,0 km/h N 3,4 C 6,4 C 0,0 km/h
10.10.2017 01:00 6,0 C 79 % 1017,9 hPa 0,0 l/m 0,0 km/h N-NO 2,6 C 6,0 C 0,0 km/h
10.10.2017 02:00 6,1 C 79 % 1017,8 hPa 0,0 l/m 0,0 km/h O-SO 2,7 C 6,1 C 0,0 km/h
10.10.2017 03:00 6,1 C 77 % 1017,5 hPa 0,0 l/m 0,0 km/h NO 2,4 C 6,1 C 0,0 km/h
10.10.2017 04:00 6,7 C 75 % 1017,6 hPa 0,0 l/m 0,0 km/h O-SO 2,6 C 6,7 C 0,0 km/h
10.10.2017 05:00 6,5 C 75 % 1017,4 hPa 0,0 l/m 0,0 km/h O-NO 2,4 C 6,5 C 0,0 km/h
10.10.2017 06:00 6,8 C 74 % 1017,4 hPa 0,0 l/m 0,0 km/h O-NO 2,5 C 6,8 C 0,0 km/h
10.10.2017 07:00 7,2 C 73 % 1017,6 hPa 0,0 l/m 0,0 km/h O 2,7 C 7,2 C 0,0 km/h
10.10.2017 08:00 8,7 C 71 % 1017,9 hPa 0,0 l/m 0,0 km/h O-NO 3,7 C 8,7 C 0,0 km/h
10.10.2017 09:00 10,5 C 67 % 1018,2 hPa 0,0 l/m 0,0 km/h S 4,6 C 10,5 C 0,0 km/h
10.10.2017 10:00 11,1 C 67 % 1018,4 hPa 0,0 l/m 0,0 km/h S 5,2 C 11,1 C 0,0 km/h
10.10.2017 11:00 12,8 C 73 % 1018,7 hPa 0,0 l/m 0,0 km/h S-SW 8,1 C 12,8 C 0,0 km/h
10.10.2017 12:00 15,5 C 80 % 1018,4 hPa 0,0 l/m 0,0 km/h S 12,1 C 15,5 C 0,0 km/h
10.10.2017 13:00 15,8 C 74 % 1017,9 hPa 0,0 l/m 5,2 km/h SW 11,2 C 15,8 C 2,9 km/h
10.10.2017 14:00 17,1 C 70 % 1017,9 hPa 0,0 l/m 1,3 km/h W-SW 11,6 C 17,1 C 0,7 km/h
10.10.2017 15:00 17,4 C 69 % 1017,6 hPa 0,0 l/m 0,0 km/h W-SW 11,7 C 17,4 C 0,0 km/h
10.10.2017 16:00 16,8 C 71 % 1017,6 hPa 0,0 l/m 0,0 km/h W-SW 11,5 C 16,8 C 0,0 km/h
10.10.2017 17:00 15,9 C 73 % 1017,9 hPa 0,0 l/m 0,0 km/h W 11,1 C 15,9 C 0,0 km/h
10.10.2017 18:00 14,2 C 79 % 1018,2 hPa 0,0 l/m 0,0 km/h N-NW 10,6 C 14,2 C 0,0 km/h
10.10.2017 19:00 12,9 C 82 % 1018,7 hPa 0,0 l/m 0,0 km/h N-NW 9,9 C 12,9 C 0,0 km/h
10.10.2017 20:00 12,5 C 83 % 1018,9 hPa 0,0 l/m 0,0 km/h N 9,7 C 12,5 C 0,0 km/h
10.10.2017 21:00 12,2 C 83 % 1018,9 hPa 0,0 l/m 0,0 km/h O-SO 9,4 C 12,2 C 0,0 km/h
10.10.2017 22:00 12,1 C 83 % 1019,0 hPa 0,0 l/m 0,0 km/h O-SO 9,3 C 12,1 C 0,0 km/h
10.10.2017 23:00 11,9 C 83 % 1019,0 hPa 0,0 l/m 0,0 km/h O-SO 9,1 C 11,9 C 0,0 km/h
11.10.2017 00:00 11,5 C 82 % 1018,7 hPa 0,0 l/m 0,0 km/h O-SO 8,5 C 11,5 C 0,0 km/h
11.10.2017 01:00 11,7 C 81 % 1018,5 hPa 0,0 l/m 0,0 km/h O-SO 8,5 C 11,7 C 0,0 km/h
11.10.2017 02:00 11,4 C 81 % 1018,4 hPa 0,0 l/m 0,0 km/h O-SO 8,3 C 11,4 C 0,0 km/h
11.10.2017 03:00 10,8 C 81 % 1018,3 hPa 0,0 l/m 0,0 km/h O-SO 7,7 C 10,8 C 0,0 km/h
11.10.2017 04:00 9,4 C 80 % 1018,3 hPa 0,0 l/m 0,0 km/h O-SO 6,1 C 9,4 C 0,0 km/h
11.10.2017 05:00 8,6 C 79 % 1018,3 hPa 0,0 l/m 0,0 km/h O-SO 5,2 C 8,6 C 0,0 km/h
11.10.2017 06:00 7,8 C 79 % 1018,2 hPa 0,0 l/m 0,0 km/h O-SO 4,4 C 7,8 C 0,0 km/h
11.10.2017 07:00 7,9 C 77 % 1018,4 hPa 0,0 l/m 0,0 km/h O-SO 4,1 C 7,9 C 0,0 km/h
11.10.2017 08:00 8,2 C 76 % 1018,8 hPa 0,0 l/m 0,0 km/h S-SO 4,2 C 8,2 C 0,0 km/h
11.10.2017 09:00 10,1 C 73 % 1019,0 hPa 0,0 l/m 0,0 km/h O-SO 5,5 C 10,1 C 0,0 km/h
11.10.2017 10:00 20,1 C 82 % 1018,8 hPa 0,0 l/m 0,0 km/h W 16,9 C 20,1 C 0,0 km/h
11.10.2017 11:00 23,5 C 62 % 1018,5 hPa 0,0 l/m 0,0 km/h W-SW 15,8 C 23,5 C 0,0 km/h
11.10.2017 12:00 23,1 C 56 % 1018,0 hPa 0,0 l/m 0,0 km/h W 13,8 C 23,1 C 0,0 km/h
11.10.2017 13:00 22,5 C 52 % 1017,6 hPa 0,0 l/m 20,1 km/h W 12,1 C 19,4 C 11,2 km/h
11.10.2017 14:00 23,9 C 50 % 1017,1 hPa 0,0 l/m 2,6 km/h W 12,8 C 23,9 C 1,4 km/h
11.10.2017 15:00 25,3 C 45 % 1016,6 hPa 0,0 l/m 0,0 km/h S-SW 12,5 C 25,3 C 0,0 km/h
11.10.2017 16:00 26,9 C 42 % 1016,3 hPa 0,0 l/m 0,0 km/h S-SO 12,9 C 26,9 C 0,0 km/h
11.10.2017 17:00 26,2 C 42 % 1015,9 hPa 0,0 l/m 8,4 km/h O-SO 12,3 C 25,8 C 4,7 km/h
11.10.2017 18:00 17,2 C 60 % 1016,2 hPa 0,0 l/m 0,0 km/h O-SO 9,4 C 17,2 C 0,0 km/h
11.10.2017 19:00 12,9 C 74 % 1016,5 hPa 0,0 l/m 0,0 km/h O-SO 8,4 C 12,9 C 0,0 km/h
11.10.2017 20:00 11,1 C 81 % 1016,9 hPa 0,0 l/m 0,0 km/h O-SO 8,0 C 11,1 C 0,0 km/h
11.10.2017 21:00 10,2 C 83 % 1017,5 hPa 0,0 l/m 0,0 km/h O-SO 7,4 C 10,2 C 0,0 km/h
11.10.2017 22:00 9,8 C 83 % 1017,6 hPa 0,0 l/m 0,0 km/h O-NO 7,1 C 9,8 C 0,0 km/h
11.10.2017 23:00 8,9 C 83 % 1017,7 hPa 0,0 l/m 0,0 km/h O-SO 6,2 C 8,9 C 0,0 km/h
12.10.2017 00:00 8,8 C 82 % 1017,5 hPa 0,0 l/m 0,0 km/h O-SO 5,9 C 8,8 C 0,0 km/h
12.10.2017 01:00 9,4 C 80 % 1017,8 hPa 0,0 l/m 0,0 km/h O-SO 6,1 C 9,4 C 0,0 km/h
12.10.2017 02:00 9,2 C 80 % 1017,7 hPa 0,0 l/m 0,0 km/h N 5,9 C 9,2 C 0,0 km/h
12.10.2017 03:00 9,5 C 79 % 1017,6 hPa 0,0 l/m 0,0 km/h N-NO 6,0 C 9,5 C 0,0 km/h
12.10.2017 04:00 8,9 C 80 % 1018,2 hPa 0,0 l/m 0,0 km/h W-SW 5,6 C 8,9 C 0,0 km/h
12.10.2017 05:00 11,7 C 80 % 1018,2 hPa 0,0 l/m 0,0 km/h W-SW 8,4 C 11,7 C 0,0 km/h
12.10.2017 06:00 14,4 C 78 % 1018,8 hPa 0,0 l/m 0,0 km/h S-SW 10,6 C 14,4 C 0,0 km/h
12.10.2017 07:00 15,6 C 73 % 1019,3 hPa 0,0 l/m 0,0 km/h W 10,8 C 15,6 C 0,0 km/h
12.10.2017 08:00 15,2 C 77 % 1020,7 hPa 0,0 l/m 0,0 km/h SW 11,2 C 15,2 C 0,0 km/h
12.10.2017 09:00 15,5 C 79 % 1021,8 hPa 0,0 l/m 3,9 km/h W 11,9 C 15,5 C 2,2 km/h
12.10.2017 10:00 15,9 C 77 % 1022,5 hPa 0,0 l/m 2,6 km/h SW 11,9 C 15,9 C 1,4 km/h
12.10.2017 11:00 16,8 C 75 % 1022,9 hPa 0,0 l/m 1,9 km/h W-SW 12,3 C 16,8 C 1,1 km/h
12.10.2017 12:00 17,9 C 74 % 1023,3 hPa 0,0 l/m 19,4 km/h W-SW 13,2 C 13,6 C 10,8 km/h
12.10.2017 13:00 22,1 C 61 % 1023,2 hPa 0,0 l/m 18,8 km/h W-SW 14,2 C 19,1 C 10,4 km/h
12.10.2017 14:00 20,5 C 61 % 1023,1 hPa 0,0 l/m 2,6 km/h W 12,7 C 20,5 C 1,4 km/h
12.10.2017 15:00 19,6 C 63 % 1023,2 hPa 0,0 l/m 0,0 km/h W 12,4 C 19,6 C 0,0 km/h
12.10.2017 16:00 19,1 C 64 % 1023,2 hPa 0,0 l/m 0,0 km/h W-SW 12,1 C 19,1 C 0,0 km/h
12.10.2017 17:00 18,4 C 68 % 1023,2 hPa 0,0 l/m 0,0 km/h W-SW 12,4 C 18,4 C 0,0 km/h
12.10.2017 18:00 16,9 C 71 % 1023,5 hPa 0,0 l/m 0,0 km/h S-SW 11,6 C 16,9 C 0,0 km/h
12.10.2017 19:00 15,9 C 73 % 1023,9 hPa 0,0 l/m 0,0 km/h N-NO 11,1 C 15,9 C 0,0 km/h
12.10.2017 20:00 12,9 C 81 % 1024,1 hPa 0,0 l/m 0,0 km/h O-NO 9,7 C 12,9 C 0,0 km/h
12.10.2017 21:00 10,9 C 83 % 1024,5 hPa 0,0 l/m 0,0 km/h O-SO 8,1 C 10,9 C 0,0 km/h
12.10.2017 22:00 10,0 C 83 % 1024,8 hPa 0,0 l/m 0,0 km/h O-SO 7,2 C 10,0 C 0,0 km/h
12.10.2017 23:00 9,4 C 83 % 1024,8 hPa 0,0 l/m 0,0 km/h O-SO 6,7 C 9,4 C 0,0 km/h
13.10.2017 00:00 9,0 C 82 % 1024,8 hPa 0,0 l/m 0,0 km/h O-SO 6,1 C 9,0 C 0,0 km/h
13.10.2017 01:00 8,8 C 81 % 1024,9 hPa 0,0 l/m 0,0 km/h O-SO 5,7 C 8,8 C 0,0 km/h
13.10.2017 02:00 8,5 C 80 % 1024,9 hPa 0,0 l/m 0,0 km/h O-SO 5,3 C 8,5 C 0,0 km/h
13.10.2017 03:00 8,7 C 79 % 1024,8 hPa 0,0 l/m 0,0 km/h O-SO 5,3 C 8,7 C 0,0 km/h
13.10.2017 04:00 8,5 C 79 % 1024,8 hPa 0,0 l/m 3,9 km/h O-SO 5,1 C 8,5 C 2,2 km/h
13.10.2017 05:00 7,9 C 78 % 1024,9 hPa 0,0 l/m 0,0 km/h O-SO 4,3 C 7,9 C 0,0 km/h
13.10.2017 06:00 6,4 C 78 % 1025,0 hPa 0,0 l/m 0,0 km/h O-SO 2,8 C 6,4 C 0,0 km/h
13.10.2017 07:00 6,7 C 77 % 1025,1 hPa 0,0 l/m 0,0 km/h O-SO 3,0 C 6,7 C 0,0 km/h
13.10.2017 08:00 7,6 C 75 % 1025,3 hPa 0,0 l/m 0,0 km/h O-SO 3,5 C 7,6 C 0,0 km/h
13.10.2017 09:00 13,2 C 75 % 1025,3 hPa 0,0 l/m 0,0 km/h O-SO 8,9 C 13,2 C 0,0 km/h
13.10.2017 10:00 21,2 C 70 % 1025,4 hPa 0,0 l/m 0,0 km/h W 15,5 C 21,2 C 0,0 km/h
13.10.2017 11:00 23,9 C 58 % 1025,0 hPa 0,0 l/m 0,0 km/h W 15,1 C 23,9 C 0,0 km/h
13.10.2017 12:00 24,9 C 54 % 1024,9 hPa 0,0 l/m 0,0 km/h W-SW 14,9 C 24,9 C 0,0 km/h
13.10.2017 13:00 25,2 C 52 % 1024,5 hPa 0,0 l/m 1,9 km/h W 14,6 C 25,2 C 1,1 km/h
13.10.2017 14:00 26,6 C 46 % 1023,7 hPa 0,0 l/m 0,0 km/h W 14,0 C 26,6 C 0,0 km/h
13.10.2017 15:00 27,9 C 42 % 1023,6 hPa 0,0 l/m 0,0 km/h W 13,8 C 27,9 C 0,0 km/h
13.10.2017 16:00 28,2 C 43 % 1023,3 hPa 0,0 l/m 0,0 km/h W 14,4 C 28,2 C 0,0 km/h
13.10.2017 17:00 26,7 C 46 % 1023,4 hPa 0,0 l/m 0,0 km/h W 14,1 C 26,7 C 0,0 km/h
13.10.2017 18:00 17,9 C 63 % 1023,7 hPa 0,0 l/m 0,0 km/h S 10,8 C 17,9 C 0,0 km/h
13.10.2017 19:00 13,5 C 76 % 1024,1 hPa 0,0 l/m 0,0 km/h S-SO 9,4 C 13,5 C 0,0 km/h
13.10.2017 20:00 12,2 C 81 % 1024,3 hPa 0,0 l/m 0,0 km/h S-SO 9,0 C 12,2 C 0,0 km/h
13.10.2017 21:00 11,6 C 83 % 1024,7 hPa 0,0 l/m 0,0 km/h O 8,8 C 11,6 C 0,0 km/h
13.10.2017 22:00 11,2 C 83 % 1024,6 hPa 0,0 l/m 0,0 km/h O-SO 8,4 C 11,2 C 0,0 km/h
13.10.2017 23:00 10,2 C 83 % 1024,9 hPa 0,0 l/m 0,0 km/h O-SO 7,4 C 10,2 C 0,0 km/h
14.10.2017 00:00 9,2 C 83 % 1024,9 hPa 0,0 l/m 0,0 km/h O 6,5 C 9,2 C 0,0 km/h
14.10.2017 01:00 8,7 C 83 % 1024,9 hPa 0,0 l/m 0,0 km/h O 6,0 C 8,7 C 0,0 km/h
14.10.2017 02:00 8,5 C 82 % 1024,9 hPa 0,0 l/m 0,0 km/h O-NO 5,6 C 8,5 C 0,0 km/h
14.10.2017 03:00 7,2 C 82 % 1025,1 hPa 0,0 l/m 0,0 km/h O-NO 4,3 C 7,2 C 0,0 km/h
14.10.2017 04:00 7,3 C 81 % 1024,9 hPa 0,0 l/m 0,0 km/h O-NO 4,3 C 7,3 C 0,0 km/h
14.10.2017 05:00 7,4 C 80 % 1024,9 hPa 0,0 l/m 0,0 km/h O-NO 4,2 C 7,4 C 0,0 km/h
14.10.2017 06:00 6,4 C 80 % 1025,0 hPa 0,0 l/m 0,0 km/h O-NO 3,2 C 6,4 C 0,0 km/h
14.10.2017 07:00 6,4 C 79 % 1024,9 hPa 0,0 l/m 0,0 km/h W-SW 3,0 C 6,4 C 0,0 km/h
14.10.2017 08:00 7,9 C 76 % 1025,3 hPa 0,0 l/m 0,0 km/h W 3,9 C 7,9 C 0,0 km/h
14.10.2017 09:00 13,5 C 70 % 1025,8 hPa 0,0 l/m 0,0 km/h W 8,1 C 13,5 C 0,0 km/h
14.10.2017 10:00 19,4 C 74 % 1025,9 hPa 0,0 l/m 0,0 km/h W-NW 14,6 C 19,4 C 0,0 km/h
14.10.2017 11:00 22,4 C 63 % 1025,6 hPa 0,0 l/m 0,0 km/h W-SW 15,0 C 22,4 C 0,0 km/h
14.10.2017 12:00 23,6 C 59 % 1025,2 hPa 0,0 l/m 0,0 km/h W 15,1 C 23,6 C 0,0 km/h
14.10.2017 13:00 23,9 C 57 % 1024,6 hPa 0,0 l/m 0,0 km/h W 14,9 C 23,9 C 0,0 km/h
14.10.2017 14:00 26,6 C 51 % 1024,1 hPa 0,0 l/m 0,0 km/h W-SW 15,6 C 26,6 C 0,0 km/h
14.10.2017 15:00 29,5 C 46 % 1023,7 hPa 0,0 l/m 0,0 km/h W-NW 16,6 C 29,5 C 0,0 km/h
14.10.2017 16:00 30,4 C 42 % 1023,6 hPa 0,0 l/m 0,0 km/h W 16,0 C 30,4 C 0,0 km/h
14.10.2017 17:00 26,4 C 49 % 1023,4 hPa 0,0 l/m 0,0 km/h W-NW 14,8 C 26,4 C 0,0 km/h
14.10.2017 18:00 16,8 C 68 % 1023,6 hPa 0,0 l/m 0,0 km/h O-SO 10,9 C 16,8 C 0,0 km/h
14.10.2017 19:00 14,1 C 80 % 1024,1 hPa 0,0 l/m 0,0 km/h O-SO 10,7 C 14,1 C 0,0 km/h
14.10.2017 20:00 12,3 C 82 % 1024,6 hPa 0,0 l/m 0,0 km/h O-SO 9,3 C 12,3 C 0,0 km/h
14.10.2017 21:00 11,7 C 83 % 1024,6 hPa 0,0 l/m 0,0 km/h O-SO 8,9 C 11,7 C 0,0 km/h
14.10.2017 22:00 11,0 C 83 % 1024,6 hPa 0,0 l/m 0,0 km/h O-SO 8,2 C 11,0 C 0,0 km/h
14.10.2017 23:00 10,6 C 82 % 1024,4 hPa 0,0 l/m 0,0 km/h O-SO 7,7 C 10,6 C 0,0 km/h
15.10.2017 00:00 9,9 C 82 % 1024,4 hPa 0,0 l/m 0,0 km/h O-SO 7,0 C 9,9 C 0,0 km/h
15.10.2017 01:00 8,4 C 82 % 1024,6 hPa 0,0 l/m 0,0 km/h O-SO 5,5 C 8,4 C 0,0 km/h
15.10.2017 02:00 8,3 C 80 % 1024,2 hPa 0,0 l/m 0,0 km/h O 5,1 C 8,3 C 0,0 km/h
15.10.2017 03:00 8,4 C 80 % 1023,9 hPa 0,0 l/m 0,0 km/h O-NO 5,2 C 8,4 C 0,0 km/h
15.10.2017 04:00 7,9 C 80 % 1023,7 hPa 0,0 l/m 0,0 km/h O-SO 4,7 C 7,9 C 0,0 km/h
15.10.2017 05:00 8,5 C 77 % 1024,0 hPa 0,0 l/m 0,0 km/h O-NO 4,7 C 8,5 C 0,0 km/h
15.10.2017 06:00 7,3 C 77 % 1024,0 hPa 0,0 l/m 0,0 km/h O-NO 3,5 C 7,3 C 0,0 km/h
15.10.2017 07:00 6,9 C 76 % 1023,7 hPa 0,0 l/m 0,0 km/h O-NO 3,0 C 6,9 C 0,0 km/h
15.10.2017 08:00 8,2 C 75 % 1024,2 hPa 0,0 l/m 0,0 km/h O-SO 4,0 C 8,2 C 0,0 km/h
15.10.2017 09:00 13,1 C 68 % 1024,6 hPa 0,0 l/m 7,8 km/h N-NO 7,3 C 12,2 C 4,3 km/h
15.10.2017 10:00 20,4 C 73 % 1024,2 hPa 0,0 l/m 0,0 km/h W 15,4 C 20,4 C 0,0 km/h
15.10.2017 11:00 24,7 C 59 % 1023,9 hPa 0,0 l/m 0,0 km/h W-SW 16,1 C 24,7 C 0,0 km/h
15.10.2017 12:00 25,6 C 53 % 1023,5 hPa 0,0 l/m 0,0 km/h W-NW 15,3 C 25,6 C 0,0 km/h
15.10.2017 13:00 26,3 C 49 % 1022,7 hPa 0,0 l/m 0,0 km/h N 14,7 C 26,3 C 0,0 km/h
15.10.2017 14:00 29,1 C 44 % 1022,0 hPa 0,0 l/m 0,0 km/h N-NW 15,6 C 29,1 C 0,0 km/h
15.10.2017 15:00 33,9 C 35 % 1021,7 hPa 0,0 l/m 0,0 km/h N-NW 16,2 C 33,9 C 0,0 km/h
15.10.2017 16:00 34,8 C 32 % 1021,3 hPa 0,0 l/m 0,0 km/h NW 15,6 C 34,8 C 0,0 km/h
15.10.2017 17:00 30,1 C 42 % 1021,0 hPa 0,0 l/m 0,0 km/h O-SO 15,7 C 30,1 C 0,0 km/h
15.10.2017 18:00 17,6 C 63 % 1021,3 hPa 0,0 l/m 0,0 km/h NO 10,5 C 17,6 C 0,0 km/h
15.10.2017 19:00 13,9 C 72 % 1022,0 hPa 0,0 l/m 0,0 km/h O-SO 8,9 C 13,9 C 0,0 km/h
15.10.2017 20:00 12,5 C 77 % 1022,4 hPa 0,0 l/m 0,0 km/h O-SO 8,6 C 12,5 C 0,0 km/h
15.10.2017 21:00 11,4 C 80 % 1022,6 hPa 0,0 l/m 1,3 km/h O-SO 8,1 C 11,4 C 0,7 km/h
15.10.2017 22:00 10,7 C 81 % 1023,2 hPa 0,0 l/m 0,0 km/h O-SO 7,6 C 10,7 C 0,0 km/h
15.10.2017 23:00 10,6 C 82 % 1023,5 hPa 0,0 l/m 0,0 km/h O-NO 7,7 C 10,6 C 0,0 km/h
Min-Datum _ 10.10.17 15.10.17 11.10.17 - 09.10.17 - 10.10.17 10.10.17 09.10.17
_ Min-Zeit 01:53 16:53 17:53 - 00:53 - 03:53 01:53 00:53
Minimum _ 6,0 C 32 % 1015,9 hPa - 0,0 km/h - 2,4 C 6,0 C 0,0 km/h
Max-Datum _ 15.10.17 09.10.17 14.10.17 09.10.17 11.10.17 - 11.10.17 15.10.17 11.10.17
_ Max-Zeit 16:53 21:53 10:53 00:53 13:53 - 10:53 16:53 13:53
Maximum _ 34,8 C 84 % 1025,9 hPa 0,0 l/m 20,1 km/h
W
- 16,9 C 34,8 C 11,2 km/h
W
Durchschnitt _ 14,1 C 72 % 1021,2 hPa #0,0 l/m 0,6 km/h O-SO 8,9 C 14,0 C 0,3 km/h
www.sexauwetter.de